Huvudsida
METAR-TAF:

METAR-TAF

Flygplatser :

Ämari flygbas

Ämari, Estland

latitud: 59-15-44N, longitud: 24-13-07E, höjd: 20 m

Aktuellt väderrapport

Denna rapport gjordes för 3 timmar och 7 minuter sedan, klockan 17:50 UTC
Vind 6 kt från nord
Temperatur -7°C
Fuktighet 62%
Tryck 1027 hPa
Sikt 10 km eller mer
Inga moln under 1 500 m eller inga cumulonimbus

METAR: EEEI 211750Z 01006KT CAVOK M07/M13 Q1027 R06/090095 NOSIG

Tid: 22:57 (20:57 UTC)

Väderprognos

Denna rapport gjordes för 9 timmar och 27 minuter sedan, klockan 11:30 UTC
Prognos gäller från 21 kl. 12 UTC till 22 kl. 12 UTC
Vind 10 kt från nord/nordost
Sikt 10 km eller mer
Få moln på en höjd av 3000 ft
Blir
från 22 kl. 10 UTC till 22 kl. 12 UTC
Vind 5 kt från nordväst

TAF: EEEI 211130Z 2112/2212 03010KT 9999 FEW030 BECMG 2210/2212 31005KT

Aktuella väderrapporter och prognoser från 4000 flygplatser (METAR- och TAF-rapporter).

De tillgängliga stationerna syns som gula och röda prickar på kartan.

För musen över prickarna för att se namnen på stationerna.

Klicka sedan för att få väderrapporter och prognoser.

För att ändra kartan: Klicka på de gröna knapparna med ett svart kors på för att zooma in; den gröna knappen med ett streck på för att zooma ut; eller på de gröna pilarna för angränsande kartor.


METAR-TAF: